sensor_id;sensor_type;location;lat;lon;timestamp;temperature;humidity
19496;DHT22;9888;48.606;9.630;2024-01-25T00:00:26;7.60;99.90
19496;DHT22;9888;48.606;9.630;2024-01-25T00:02:54;7.60;99.90
19496;DHT22;9888;48.606;9.630;2024-01-25T00:05:23;7.60;99.90
19496;DHT22;9888;48.606;9.630;2024-01-25T00:07:50;7.60;99.90
19496;DHT22;9888;48.606;9.630;2024-01-25T00:10:20;7.60;99.90
19496;DHT22;9888;48.606;9.630;2024-01-25T00:12:59;7.60;99.90
19496;DHT22;9888;48.606;9.630;2024-01-25T00:15:26;7.50;99.90
19496;DHT22;9888;48.606;9.630;2024-01-25T00:17:55;7.50;99.90
19496;DHT22;9888;48.606;9.630;2024-01-25T00:20:23;7.60;99.90
19496;DHT22;9888;48.606;9.630;2024-01-25T00:22:50;7.50;99.90
19496;DHT22;9888;48.606;9.630;2024-01-25T00:25:21;7.50;99.90
19496;DHT22;9888;48.606;9.630;2024-01-25T00:27:49;7.50;99.90
19496;DHT22;9888;48.606;9.630;2024-01-25T00:30:17;7.50;99.90
19496;DHT22;9888;48.606;9.630;2024-01-25T00:32:50;7.50;99.90
19496;DHT22;9888;48.606;9.630;2024-01-25T00:35:18;7.40;99.90
19496;DHT22;9888;48.606;9.630;2024-01-25T00:37:53;7.50;99.90
19496;DHT22;9888;48.606;9.630;2024-01-25T00:40:21;7.40;99.90
19496;DHT22;9888;48.606;9.630;2024-01-25T00:42:52;7.40;99.90
19496;DHT22;9888;48.606;9.630;2024-01-25T00:45:21;7.50;99.90
19496;DHT22;9888;48.606;9.630;2024-01-25T00:47:48;7.40;99.90
19496;DHT22;9888;48.606;9.630;2024-01-25T00:50:17;7.50;99.90
19496;DHT22;9888;48.606;9.630;2024-01-25T00:52:46;7.50;99.90
19496;DHT22;9888;48.606;9.630;2024-01-25T00:55:15;7.50;99.90
19496;DHT22;9888;48.606;9.630;2024-01-25T00:57:43;7.50;99.90
19496;DHT22;9888;48.606;9.630;2024-01-25T01:00:12;7.50;99.90
19496;DHT22;9888;48.606;9.630;2024-01-25T01:02:44;7.50;99.90
19496;DHT22;9888;48.606;9.630;2024-01-25T01:05:13;7.50;99.90
19496;DHT22;9888;48.606;9.630;2024-01-25T01:07:41;7.50;99.90
19496;DHT22;9888;48.606;9.630;2024-01-25T01:10:09;7.50;99.90
19496;DHT22;9888;48.606;9.630;2024-01-25T01:12:37;7.50;99.90
19496;DHT22;9888;48.606;9.630;2024-01-25T01:15:04;7.50;99.90
19496;DHT22;9888;48.606;9.630;2024-01-25T01:17:32;7.50;99.90
19496;DHT22;9888;48.606;9.630;2024-01-25T01:20:00;7.50;99.90
19496;DHT22;9888;48.606;9.630;2024-01-25T01:22:28;7.50;99.90
19496;DHT22;9888;48.606;9.630;2024-01-25T01:24:59;7.50;99.90
19496;DHT22;9888;48.606;9.630;2024-01-25T01:27:26;7.50;99.90
19496;DHT22;9888;48.606;9.630;2024-01-25T01:29:54;7.50;99.90
19496;DHT22;9888;48.606;9.630;2024-01-25T01:32:23;7.50;99.90
19496;DHT22;9888;48.606;9.630;2024-01-25T01:34:50;7.50;99.90
19496;DHT22;9888;48.606;9.630;2024-01-25T01:37:20;7.50;99.90
19496;DHT22;9888;48.606;9.630;2024-01-25T01:39:49;7.50;99.90
19496;DHT22;9888;48.606;9.630;2024-01-25T01:42:23;7.40;99.90
19496;DHT22;9888;48.606;9.630;2024-01-25T01:44:51;7.20;99.90
19496;DHT22;9888;48.606;9.630;2024-01-25T01:47:20;7.00;99.90
19496;DHT22;9888;48.606;9.630;2024-01-25T01:49:49;6.90;99.90
19496;DHT22;9888;48.606;9.630;2024-01-25T01:52:17;6.70;99.90
19496;DHT22;9888;48.606;9.630;2024-01-25T01:54:46;6.60;99.90
19496;DHT22;9888;48.606;9.630;2024-01-25T01:57:15;6.50;99.90
19496;DHT22;9888;48.606;9.630;2024-01-25T01:59:42;6.50;99.90
19496;DHT22;9888;48.606;9.630;2024-01-25T02:02:10;6.50;99.90
19496;DHT22;9888;48.606;9.630;2024-01-25T02:04:38;6.50;99.90
19496;DHT22;9888;48.606;9.630;2024-01-25T02:07:07;6.50;99.90
19496;DHT22;9888;48.606;9.630;2024-01-25T02:09:35;6.50;99.90
19496;DHT22;9888;48.606;9.630;2024-01-25T02:12:05;6.40;99.90
19496;DHT22;9888;48.606;9.630;2024-01-25T02:17:56;6.50;99.90
19496;DHT22;9888;48.606;9.630;2024-01-25T02:20:24;6.50;99.90
19496;DHT22;9888;48.606;9.630;2024-01-25T02:22:52;6.50;99.90
19496;DHT22;9888;48.606;9.630;2024-01-25T02:25:19;6.50;99.90
19496;DHT22;9888;48.606;9.630;2024-01-25T02:27:46;6.50;99.90
19496;DHT22;9888;48.606;9.630;2024-01-25T02:30:13;6.50;99.90
19496;DHT22;9888;48.606;9.630;2024-01-25T02:32:39;6.50;99.90
19496;DHT22;9888;48.606;9.630;2024-01-25T02:35:07;6.60;99.90
19496;DHT22;9888;48.606;9.630;2024-01-25T02:37:34;6.60;99.90
19496;DHT22;9888;48.606;9.630;2024-01-25T02:40:02;6.70;99.90
19496;DHT22;9888;48.606;9.630;2024-01-25T02:42:30;6.70;99.90
19496;DHT22;9888;48.606;9.630;2024-01-25T02:44:57;6.70;99.90
19496;DHT22;9888;48.606;9.630;2024-01-25T02:47:25;6.70;99.90
19496;DHT22;9888;48.606;9.630;2024-01-25T02:49:56;6.70;99.90
19496;DHT22;9888;48.606;9.630;2024-01-25T02:52:25;6.80;99.90
19496;DHT22;9888;48.606;9.630;2024-01-25T02:54:55;6.80;99.90
19496;DHT22;9888;48.606;9.630;2024-01-25T02:57:25;6.80;99.90
19496;DHT22;9888;48.606;9.630;2024-01-25T02:59:53;6.80;99.90
19496;DHT22;9888;48.606;9.630;2024-01-25T03:02:29;6.80;99.90
19496;DHT22;9888;48.606;9.630;2024-01-25T03:04:57;6.80;99.90
19496;DHT22;9888;48.606;9.630;2024-01-25T03:07:25;6.90;99.90
19496;DHT22;9888;48.606;9.630;2024-01-25T03:09:53;6.90;99.90
19496;DHT22;9888;48.606;9.630;2024-01-25T03:12:23;6.90;99.90
19496;DHT22;9888;48.606;9.630;2024-01-25T03:18:13;6.90;99.90
19496;DHT22;9888;48.606;9.630;2024-01-25T03:20:40;6.90;99.90
19496;DHT22;9888;48.606;9.630;2024-01-25T03:23:07;6.90;99.90
19496;DHT22;9888;48.606;9.630;2024-01-25T03:25:52;6.80;99.90
19496;DHT22;9888;48.606;9.630;2024-01-25T03:28:19;6.80;99.90
19496;DHT22;9888;48.606;9.630;2024-01-25T03:34:09;6.90;99.90
19496;DHT22;9888;48.606;9.630;2024-01-25T03:36:38;6.80;99.90
19496;DHT22;9888;48.606;9.630;2024-01-25T03:39:10;6.80;99.90
19496;DHT22;9888;48.606;9.630;2024-01-25T03:41:37;6.80;99.90
19496;DHT22;9888;48.606;9.630;2024-01-25T03:44:05;6.80;99.90
19496;DHT22;9888;48.606;9.630;2024-01-25T03:46:34;6.80;99.90
19496;DHT22;9888;48.606;9.630;2024-01-25T03:49:01;6.80;99.90
19496;DHT22;9888;48.606;9.630;2024-01-25T03:51:30;6.80;99.90
19496;DHT22;9888;48.606;9.630;2024-01-25T03:53:58;6.80;99.90
19496;DHT22;9888;48.606;9.630;2024-01-25T03:56:24;6.80;99.90
19496;DHT22;9888;48.606;9.630;2024-01-25T03:58:56;6.80;99.90
19496;DHT22;9888;48.606;9.630;2024-01-25T04:01:44;6.80;99.90
19496;DHT22;9888;48.606;9.630;2024-01-25T04:04:13;6.70;99.90
19496;DHT22;9888;48.606;9.630;2024-01-25T04:06:43;6.70;99.90
19496;DHT22;9888;48.606;9.630;2024-01-25T04:09:11;6.70;99.90
19496;DHT22;9888;48.606;9.630;2024-01-25T04:11:40;6.70;99.90
19496;DHT22;9888;48.606;9.630;2024-01-25T04:14:09;6.70;99.90
19496;DHT22;9888;48.606;9.630;2024-01-25T04:16:43;6.70;99.90
19496;DHT22;9888;48.606;9.630;2024-01-25T04:19:13;6.70;99.90
19496;DHT22;9888;48.606;9.630;2024-01-25T04:21:41;6.60;99.90
19496;DHT22;9888;48.606;9.630;2024-01-25T04:24:09;6.70;99.90
19496;DHT22;9888;48.606;9.630;2024-01-25T04:26:38;6.70;99.90
19496;DHT22;9888;48.606;9.630;2024-01-25T04:29:06;6.60;99.90
19496;DHT22;9888;48.606;9.630;2024-01-25T04:31:33;6.60;99.90
19496;DHT22;9888;48.606;9.630;2024-01-25T04:34:00;6.70;99.90
19496;DHT22;9888;48.606;9.630;2024-01-25T04:36:42;6.70;99.90
19496;DHT22;9888;48.606;9.630;2024-01-25T04:39:09;6.70;99.90
19496;DHT22;9888;48.606;9.630;2024-01-25T04:41:37;6.60;99.90
19496;DHT22;9888;48.606;9.630;2024-01-25T04:44:05;6.60;99.90
19496;DHT22;9888;48.606;9.630;2024-01-25T04:46:32;6.60;99.90
19496;DHT22;9888;48.606;9.630;2024-01-25T04:49:07;6.60;99.90
19496;DHT22;9888;48.606;9.630;2024-01-25T04:51:36;6.60;99.90
19496;DHT22;9888;48.606;9.630;2024-01-25T04:54:03;6.60;99.90
19496;DHT22;9888;48.606;9.630;2024-01-25T04:56:31;6.60;99.90
19496;DHT22;9888;48.606;9.630;2024-01-25T04:58:58;6.60;99.90
19496;DHT22;9888;48.606;9.630;2024-01-25T05:01:26;6.60;99.90
19496;DHT22;9888;48.606;9.630;2024-01-25T05:03:53;6.50;99.90
19496;DHT22;9888;48.606;9.630;2024-01-25T05:06:21;6.50;99.90
19496;DHT22;9888;48.606;9.630;2024-01-25T05:08:48;6.50;99.90
19496;DHT22;9888;48.606;9.630;2024-01-25T05:11:16;6.50;99.90
19496;DHT22;9888;48.606;9.630;2024-01-25T05:13:43;6.50;99.90
19496;DHT22;9888;48.606;9.630;2024-01-25T05:16:11;6.50;99.90
19496;DHT22;9888;48.606;9.630;2024-01-25T05:18:39;6.50;99.90
19496;DHT22;9888;48.606;9.630;2024-01-25T05:21:14;6.40;99.90
19496;DHT22;9888;48.606;9.630;2024-01-25T05:23:42;6.40;99.90
19496;DHT22;9888;48.606;9.630;2024-01-25T05:26:10;6.40;99.90
19496;DHT22;9888;48.606;9.630;2024-01-25T05:28:37;6.40;99.90
19496;DHT22;9888;48.606;9.630;2024-01-25T05:31:04;6.40;99.90
19496;DHT22;9888;48.606;9.630;2024-01-25T05:33:39;6.40;99.90
19496;DHT22;9888;48.606;9.630;2024-01-25T05:36:08;6.40;99.90
19496;DHT22;9888;48.606;9.630;2024-01-25T05:38:56;6.30;99.90
19496;DHT22;9888;48.606;9.630;2024-01-25T05:41:23;6.30;99.90
19496;DHT22;9888;48.606;9.630;2024-01-25T05:43:51;6.20;99.90
19496;DHT22;9888;48.606;9.630;2024-01-25T05:46:18;6.20;99.90
19496;DHT22;9888;48.606;9.630;2024-01-25T05:48:45;6.10;99.90
19496;DHT22;9888;48.606;9.630;2024-01-25T05:51:13;6.10;99.90
19496;DHT22;9888;48.606;9.630;2024-01-25T05:53:40;6.00;99.90
19496;DHT22;9888;48.606;9.630;2024-01-25T05:56:08;6.00;99.90
19496;DHT22;9888;48.606;9.630;2024-01-25T05:58:35;6.00;99.90
19496;DHT22;9888;48.606;9.630;2024-01-25T06:01:20;6.00;99.90
19496;DHT22;9888;48.606;9.630;2024-01-25T06:03:48;5.90;99.90
19496;DHT22;9888;48.606;9.630;2024-01-25T06:06:15;5.90;99.90
19496;DHT22;9888;48.606;9.630;2024-01-25T06:08:42;5.80;99.90
19496;DHT22;9888;48.606;9.630;2024-01-25T06:11:13;5.80;99.90
19496;DHT22;9888;48.606;9.630;2024-01-25T06:13:40;5.70;99.90
19496;DHT22;9888;48.606;9.630;2024-01-25T06:16:09;5.70;99.90
19496;DHT22;9888;48.606;9.630;2024-01-25T06:18:35;5.70;99.90
19496;DHT22;9888;48.606;9.630;2024-01-25T06:21:03;5.70;99.90
19496;DHT22;9888;48.606;9.630;2024-01-25T06:23:31;5.70;99.90
19496;DHT22;9888;48.606;9.630;2024-01-25T06:25:59;5.60;99.90
19496;DHT22;9888;48.606;9.630;2024-01-25T06:28:28;5.50;99.90
19496;DHT22;9888;48.606;9.630;2024-01-25T06:30:56;5.50;99.90
19496;DHT22;9888;48.606;9.630;2024-01-25T06:33:25;5.50;99.90
19496;DHT22;9888;48.606;9.630;2024-01-25T06:35:51;5.50;99.90
19496;DHT22;9888;48.606;9.630;2024-01-25T06:38:20;5.50;99.90
19496;DHT22;9888;48.606;9.630;2024-01-25T06:40:52;5.50;99.90
19496;DHT22;9888;48.606;9.630;2024-01-25T06:43:20;5.50;99.90
19496;DHT22;9888;48.606;9.630;2024-01-25T06:45:51;5.30;99.90
19496;DHT22;9888;48.606;9.630;2024-01-25T06:48:20;5.30;99.90
19496;DHT22;9888;48.606;9.630;2024-01-25T06:50:49;5.30;99.90
19496;DHT22;9888;48.606;9.630;2024-01-25T06:53:18;5.30;99.90
19496;DHT22;9888;48.606;9.630;2024-01-25T06:55:47;5.20;99.90
19496;DHT22;9888;48.606;9.630;2024-01-25T06:58:15;5.20;99.90
19496;DHT22;9888;48.606;9.630;2024-01-25T07:00:49;5.10;99.90
19496;DHT22;9888;48.606;9.630;2024-01-25T07:03:17;5.10;99.90
19496;DHT22;9888;48.606;9.630;2024-01-25T07:05:45;5.20;99.90
19496;DHT22;9888;48.606;9.630;2024-01-25T07:08:12;5.10;99.90
19496;DHT22;9888;48.606;9.630;2024-01-25T07:10:40;5.10;99.90
19496;DHT22;9888;48.606;9.630;2024-01-25T07:13:07;5.10;99.90
19496;DHT22;9888;48.606;9.630;2024-01-25T07:15:34;5.10;99.90
19496;DHT22;9888;48.606;9.630;2024-01-25T07:18:01;5.10;99.90
19496;DHT22;9888;48.606;9.630;2024-01-25T07:20:31;5.10;99.90
19496;DHT22;9888;48.606;9.630;2024-01-25T07:22:58;5.10;99.90
19496;DHT22;9888;48.606;9.630;2024-01-25T07:25:34;5.10;99.90
19496;DHT22;9888;48.606;9.630;2024-01-25T07:28:02;5.10;99.90
19496;DHT22;9888;48.606;9.630;2024-01-25T07:30:29;5.10;99.90
19496;DHT22;9888;48.606;9.630;2024-01-25T07:32:56;5.10;99.90
19496;DHT22;9888;48.606;9.630;2024-01-25T07:35:25;5.10;99.90
19496;DHT22;9888;48.606;9.630;2024-01-25T07:37:53;5.10;99.90
19496;DHT22;9888;48.606;9.630;2024-01-25T07:40:23;5.20;99.90
19496;DHT22;9888;48.606;9.630;2024-01-25T07:42:50;5.30;99.90
19496;DHT22;9888;48.606;9.630;2024-01-25T07:45:17;5.30;99.90
19496;DHT22;9888;48.606;9.630;2024-01-25T07:47:45;5.40;99.90
19496;DHT22;9888;48.606;9.630;2024-01-25T07:50:13;5.50;99.90
19496;DHT22;9888;48.606;9.630;2024-01-25T07:52:40;5.60;99.90
19496;DHT22;9888;48.606;9.630;2024-01-25T07:55:07;5.60;99.90
19496;DHT22;9888;48.606;9.630;2024-01-25T07:57:42;5.70;99.90
19496;DHT22;9888;48.606;9.630;2024-01-25T08:00:11;5.80;99.90
19496;DHT22;9888;48.606;9.630;2024-01-25T08:02:39;5.90;99.90
19496;DHT22;9888;48.606;9.630;2024-01-25T08:05:07;6.00;99.90
19496;DHT22;9888;48.606;9.630;2024-01-25T08:07:35;6.00;99.90
19496;DHT22;9888;48.606;9.630;2024-01-25T08:10:11;6.10;99.90
19496;DHT22;9888;48.606;9.630;2024-01-25T08:12:39;6.40;99.90
19496;DHT22;9888;48.606;9.630;2024-01-25T08:15:35;6.60;99.90
19496;DHT22;9888;48.606;9.630;2024-01-25T08:18:03;7.40;99.90
19496;DHT22;9888;48.606;9.630;2024-01-25T08:23:53;7.60;99.90
19496;DHT22;9888;48.606;9.630;2024-01-25T08:26:22;7.20;99.90
19496;DHT22;9888;48.606;9.630;2024-01-25T08:28:49;7.60;99.90
19496;DHT22;9888;48.606;9.630;2024-01-25T08:31:16;7.80;99.90
19496;DHT22;9888;48.606;9.630;2024-01-25T08:33:44;8.70;99.90
19496;DHT22;9888;48.606;9.630;2024-01-25T08:36:20;10.20;99.90
19496;DHT22;9888;48.606;9.630;2024-01-25T08:38:47;11.70;99.90
19496;DHT22;9888;48.606;9.630;2024-01-25T08:41:15;11.10;99.90
19496;DHT22;9888;48.606;9.630;2024-01-25T08:43:42;11.50;99.90
19496;DHT22;9888;48.606;9.630;2024-01-25T08:46:09;10.70;99.90
19496;DHT22;9888;48.606;9.630;2024-01-25T08:48:36;9.90;99.90
19496;DHT22;9888;48.606;9.630;2024-01-25T08:51:04;9.90;99.90
19496;DHT22;9888;48.606;9.630;2024-01-25T08:53:31;10.00;99.90
19496;DHT22;9888;48.606;9.630;2024-01-25T08:56:00;9.60;99.90
19496;DHT22;9888;48.606;9.630;2024-01-25T08:58:28;9.30;99.90
19496;DHT22;9888;48.606;9.630;2024-01-25T09:00:56;9.30;99.90
19496;DHT22;9888;48.606;9.630;2024-01-25T09:03:24;9.30;99.90
19496;DHT22;9888;48.606;9.630;2024-01-25T09:05:57;8.20;99.90
19496;DHT22;9888;48.606;9.630;2024-01-25T09:08:25;8.30;99.90
19496;DHT22;9888;48.606;9.630;2024-01-25T09:10:53;9.10;99.90
19496;DHT22;9888;48.606;9.630;2024-01-25T09:13:22;9.40;99.90
19496;DHT22;9888;48.606;9.630;2024-01-25T09:15:49;9.50;99.90
19496;DHT22;9888;48.606;9.630;2024-01-25T09:18:16;9.80;99.90
19496;DHT22;9888;48.606;9.630;2024-01-25T09:20:43;8.60;99.90
19496;DHT22;9888;48.606;9.630;2024-01-25T09:23:18;9.60;99.90
19496;DHT22;9888;48.606;9.630;2024-01-25T09:25:54;9.60;99.90
19496;DHT22;9888;48.606;9.630;2024-01-25T09:28:21;12.00;99.90
19496;DHT22;9888;48.606;9.630;2024-01-25T09:30:50;10.60;99.90
19496;DHT22;9888;48.606;9.630;2024-01-25T09:33:17;9.20;99.90
19496;DHT22;9888;48.606;9.630;2024-01-25T09:35:44;8.70;99.90
19496;DHT22;9888;48.606;9.630;2024-01-25T09:38:13;7.60;99.90
19496;DHT22;9888;48.606;9.630;2024-01-25T09:40:40;7.60;99.90
19496;DHT22;9888;48.606;9.630;2024-01-25T09:43:08;7.10;99.90
19496;DHT22;9888;48.606;9.630;2024-01-25T09:45:41;7.40;99.90
19496;DHT22;9888;48.606;9.630;2024-01-25T09:51:37;7.10;99.90
19496;DHT22;9888;48.606;9.630;2024-01-25T09:54:05;7.00;99.90
19496;DHT22;9888;48.606;9.630;2024-01-25T09:56:34;7.10;99.90
19496;DHT22;9888;48.606;9.630;2024-01-25T09:59:02;7.20;99.90
19496;DHT22;9888;48.606;9.630;2024-01-25T10:01:31;7.40;99.90
19496;DHT22;9888;48.606;9.630;2024-01-25T10:03:58;7.70;99.90
19496;DHT22;9888;48.606;9.630;2024-01-25T10:06:25;7.80;99.90
19496;DHT22;9888;48.606;9.630;2024-01-25T10:08:53;7.80;99.90
19496;DHT22;9888;48.606;9.630;2024-01-25T10:11:23;7.80;99.90
19496;DHT22;9888;48.606;9.630;2024-01-25T10:13:53;7.60;99.90
19496;DHT22;9888;48.606;9.630;2024-01-25T10:16:20;7.70;99.90
19496;DHT22;9888;48.606;9.630;2024-01-25T10:18:48;7.70;99.90
19496;DHT22;9888;48.606;9.630;2024-01-25T10:21:16;7.50;99.90
19496;DHT22;9888;48.606;9.630;2024-01-25T10:23:49;7.50;99.90
19496;DHT22;9888;48.606;9.630;2024-01-25T10:26:17;8.20;99.90
19496;DHT22;9888;48.606;9.630;2024-01-25T10:28:54;7.80;99.90
19496;DHT22;9888;48.606;9.630;2024-01-25T10:31:26;8.60;99.90
19496;DHT22;9888;48.606;9.630;2024-01-25T10:33:57;9.50;99.90
19496;DHT22;9888;48.606;9.630;2024-01-25T10:36:26;9.90;99.90
19496;DHT22;9888;48.606;9.630;2024-01-25T10:38:56;9.70;99.90
19496;DHT22;9888;48.606;9.630;2024-01-25T10:41:25;8.50;99.90
19496;DHT22;9888;48.606;9.630;2024-01-25T10:43:55;8.10;99.90
19496;DHT22;9888;48.606;9.630;2024-01-25T10:46:23;7.90;99.90
19496;DHT22;9888;48.606;9.630;2024-01-25T10:48:51;7.70;99.90
19496;DHT22;9888;48.606;9.630;2024-01-25T10:51:19;7.50;99.90
19496;DHT22;9888;48.606;9.630;2024-01-25T10:53:54;7.40;99.90
19496;DHT22;9888;48.606;9.630;2024-01-25T10:56:25;7.30;99.90
19496;DHT22;9888;48.606;9.630;2024-01-25T10:58:53;7.20;99.90
19496;DHT22;9888;48.606;9.630;2024-01-25T11:01:24;7.30;99.90
19496;DHT22;9888;48.606;9.630;2024-01-25T11:03:54;7.30;99.90
19496;DHT22;9888;48.606;9.630;2024-01-25T11:07:04;7.40;99.90
19496;DHT22;9888;48.606;9.630;2024-01-25T11:09:35;7.30;99.90
19496;DHT22;9888;48.606;9.630;2024-01-25T11:12:19;8.20;99.90
19496;DHT22;9888;48.606;9.630;2024-01-25T11:15:07;10.40;99.90
19496;DHT22;9888;48.606;9.630;2024-01-25T11:17:36;10.50;99.90
19496;DHT22;9888;48.606;9.630;2024-01-25T11:20:04;10.20;99.90
19496;DHT22;9888;48.606;9.630;2024-01-25T11:25:55;11.40;99.90
19496;DHT22;9888;48.606;9.630;2024-01-25T11:28:23;13.00;99.90
19496;DHT22;9888;48.606;9.630;2024-01-25T11:30:50;13.30;99.90
19496;DHT22;9888;48.606;9.630;2024-01-25T11:33:38;11.90;99.90
19496;DHT22;9888;48.606;9.630;2024-01-25T11:36:07;10.30;99.90
19496;DHT22;9888;48.606;9.630;2024-01-25T11:38:36;11.70;99.90
19496;DHT22;9888;48.606;9.630;2024-01-25T11:41:05;14.20;99.90
19496;DHT22;9888;48.606;9.630;2024-01-25T11:43:33;16.10;99.90
19496;DHT22;9888;48.606;9.630;2024-01-25T11:46:07;17.20;99.90
19496;DHT22;9888;48.606;9.630;2024-01-25T11:51:51;15.60;99.90
19496;DHT22;9888;48.606;9.630;2024-01-25T11:54:23;14.40;99.90
19496;DHT22;9888;48.606;9.630;2024-01-25T11:56:52;14.30;99.90
19496;DHT22;9888;48.606;9.630;2024-01-25T11:59:19;15.50;99.90
19496;DHT22;9888;48.606;9.630;2024-01-25T12:01:50;14.40;99.90
19496;DHT22;9888;48.606;9.630;2024-01-25T12:04:19;13.40;99.90
19496;DHT22;9888;48.606;9.630;2024-01-25T12:07:01;12.40;99.90
19496;DHT22;9888;48.606;9.630;2024-01-25T12:16:14;10.90;99.90
19496;DHT22;9888;48.606;9.630;2024-01-25T22:11:17;7.10;99.90
19496;DHT22;9888;48.606;9.630;2024-01-25T22:13:51;7.10;99.90
19496;DHT22;9888;48.606;9.630;2024-01-25T22:16:21;7.10;99.90
19496;DHT22;9888;48.606;9.630;2024-01-25T22:18:49;7.00;99.90
19496;DHT22;9888;48.606;9.630;2024-01-25T22:21:16;7.10;99.90
19496;DHT22;9888;48.606;9.630;2024-01-25T22:23:44;7.10;99.90
19496;DHT22;9888;48.606;9.630;2024-01-25T22:26:12;7.20;99.90
19496;DHT22;9888;48.606;9.630;2024-01-25T22:28:40;7.20;99.90
19496;DHT22;9888;48.606;9.630;2024-01-25T22:31:07;7.20;99.90
19496;DHT22;9888;48.606;9.630;2024-01-25T22:33:34;7.20;99.90
19496;DHT22;9888;48.606;9.630;2024-01-25T22:36:03;7.20;99.90
19496;DHT22;9888;48.606;9.630;2024-01-25T22:38:31;7.10;99.90
19496;DHT22;9888;48.606;9.630;2024-01-25T22:41:00;7.10;99.90
19496;DHT22;9888;48.606;9.630;2024-01-25T22:43:27;7.10;99.90
19496;DHT22;9888;48.606;9.630;2024-01-25T22:45:55;7.20;99.90
19496;DHT22;9888;48.606;9.630;2024-01-25T22:48:22;7.10;99.90
19496;DHT22;9888;48.606;9.630;2024-01-25T22:50:51;7.20;99.90
19496;DHT22;9888;48.606;9.630;2024-01-25T22:53:19;7.20;99.90
19496;DHT22;9888;48.606;9.630;2024-01-25T22:55:46;7.20;99.90
19496;DHT22;9888;48.606;9.630;2024-01-25T22:58:14;7.30;99.90
19496;DHT22;9888;48.606;9.630;2024-01-25T23:00:41;7.30;99.90
19496;DHT22;9888;48.606;9.630;2024-01-25T23:03:09;7.30;99.90
19496;DHT22;9888;48.606;9.630;2024-01-25T23:05:36;7.20;99.90
19496;DHT22;9888;48.606;9.630;2024-01-25T23:08:04;7.20;99.90
19496;DHT22;9888;48.606;9.630;2024-01-25T23:10:33;7.30;99.90
19496;DHT22;9888;48.606;9.630;2024-01-25T23:13:01;7.40;99.90
19496;DHT22;9888;48.606;9.630;2024-01-25T23:15:32;7.40;99.90
19496;DHT22;9888;48.606;9.630;2024-01-25T23:18:00;7.40;99.90
19496;DHT22;9888;48.606;9.630;2024-01-25T23:20:27;7.50;99.90
19496;DHT22;9888;48.606;9.630;2024-01-25T23:22:56;7.50;99.90
19496;DHT22;9888;48.606;9.630;2024-01-25T23:25:23;7.40;99.90
19496;DHT22;9888;48.606;9.630;2024-01-25T23:27:50;7.30;99.90
19496;DHT22;9888;48.606;9.630;2024-01-25T23:30:17;7.40;99.90
19496;DHT22;9888;48.606;9.630;2024-01-25T23:32:45;7.40;99.90
19496;DHT22;9888;48.606;9.630;2024-01-25T23:35:13;7.30;99.90
19496;DHT22;9888;48.606;9.630;2024-01-25T23:37:40;7.30;99.90
19496;DHT22;9888;48.606;9.630;2024-01-25T23:40:08;7.20;99.90
19496;DHT22;9888;48.606;9.630;2024-01-25T23:42:37;7.20;99.90
19496;DHT22;9888;48.606;9.630;2024-01-25T23:45:23;7.20;99.90
19496;DHT22;9888;48.606;9.630;2024-01-25T23:47:50;7.20;99.90
19496;DHT22;9888;48.606;9.630;2024-01-25T23:50:17;7.20;99.90
19496;DHT22;9888;48.606;9.630;2024-01-25T23:52:45;7.20;99.90
19496;DHT22;9888;48.606;9.630;2024-01-25T23:55:13;7.10;99.90
19496;DHT22;9888;48.606;9.630;2024-01-25T23:57:40;7.10;99.90
